地図

経路データ

SID SEASON NUMBER BASIN SUBBASIN NAME ISO_TIME NATURE LAT LON WMO_WIND WMO_PRES WMO_AGENCY TRACK_TYPE DIST2LAND LANDFALL IFLAG USA_AGENCY USA_ATCF_ID USA_LAT USA_LON USA_RECORD USA_STATUS USA_WIND USA_PRES USA_SSHS USA_R34_NE USA_R34_SE USA_R34_SW USA_R34_NW USA_R50_NE USA_R50_SE USA_R50_SW USA_R50_NW USA_R64_NE USA_R64_SE USA_R64_SW USA_R64_NW USA_POCI USA_ROCI USA_RMW USA_EYE TOKYO_LAT TOKYO_LON TOKYO_GRADE TOKYO_WIND TOKYO_PRES TOKYO_R50_DIR TOKYO_R50_LONG TOKYO_R50_SHORT TOKYO_R30_DIR TOKYO_R30_LONG TOKYO_R30_SHORT TOKYO_LAND CMA_LAT CMA_LON CMA_CAT CMA_WIND CMA_PRES HKO_LAT HKO_LON HKO_CAT HKO_WIND HKO_PRES NEWDELHI_LAT NEWDELHI_LON NEWDELHI_GRADE NEWDELHI_WIND NEWDELHI_PRES NEWDELHI_CI NEWDELHI_DP NEWDELHI_POCI REUNION_LAT REUNION_LON REUNION_TYPE REUNION_WIND REUNION_PRES REUNION_TNUM REUNION_CI REUNION_RMW REUNION_R34_NE REUNION_R34_SE REUNION_R34_SW REUNION_R34_NW REUNION_R50_NE REUNION_R50_SE REUNION_R50_SW REUNION_R50_NW REUNION_R64_NE REUNION_R64_SE REUNION_R64_SW REUNION_R64_NW BOM_LAT BOM_LON BOM_TYPE BOM_WIND BOM_PRES BOM_TNUM BOM_CI BOM_RMW BOM_R34_NE BOM_R34_SE BOM_R34_SW BOM_R34_NW BOM_R50_NE BOM_R50_SE BOM_R50_SW BOM_R50_NW BOM_R64_NE BOM_R64_SE BOM_R64_SW BOM_R64_NW BOM_ROCI BOM_POCI BOM_EYE BOM_POS_METHOD BOM_PRES_METHOD NADI_LAT NADI_LON NADI_CAT NADI_WIND NADI_PRES WELLINGTON_LAT WELLINGTON_LON WELLINGTON_WIND WELLINGTON_PRES DS824_LAT DS824_LON DS824_STAGE DS824_WIND DS824_PRES TD9636_LAT TD9636_LON TD9636_STAGE TD9636_WIND TD9636_PRES TD9635_LAT TD9635_LON TD9635_WIND TD9635_PRES TD9635_ROCI NEUMANN_LAT NEUMANN_LON NEUMANN_CLASS NEUMANN_WIND NEUMANN_PRES MLC_LAT MLC_LON MLC_CLASS MLC_WIND MLC_PRES USA_GUST BOM_GUST BOM_GUST_PER REUNION_GUST REUNION_GUST_PER USA_SEAHGT USA_SEARAD_NE USA_SEARAD_SE USA_SEARAD_SW USA_SEARAD_NW STORM_SPEED STORM_DIR
1970212N18278 1970 77 NA CS CELIA 1970-07-31 00:00:00 TS 18.5000 -82.5000 25 1008 hurdat_atl main 325 268 O_____________ hurdat_atl AL041970 18.5000 -82.5000 TD 25 1008 -1 11 338
1970212N18278 1970 77 NA CS CELIA 1970-07-31 03:00:00 TS 19.0201 -82.7171 main 268 212 P_____________ AL041970 19.0201 -82.7171 TD 25 -1 11 339
1970212N18278 1970 77 NA CS CELIA 1970-07-31 06:00:00 TS 19.5000 -82.9000 25 hurdat_atl main 212 169 O_____________ hurdat_atl AL041970 19.5000 -82.9000 TD 25 -1 9 341
1970212N18278 1970 77 NA CS CELIA 1970-07-31 09:00:00 TS 19.9149 -83.0354 main 169 129 P_____________ AL041970 19.9149 -83.0354 TD 25 -1 9 341
1970212N18278 1970 77 NA CS CELIA 1970-07-31 12:00:00 TS 20.3000 -83.2000 25 hurdat_atl main 129 98 O_____________ hurdat_atl AL041970 20.3000 -83.2000 TD 25 -1 9 332
1970212N18278 1970 77 NA CS CELIA 1970-07-31 15:00:00 TS 20.7001 -83.4849 main 103 91 P_____________ AL041970 20.7001 -83.4849 TD 27 -1 10 325
1970212N18278 1970 77 NA CS CELIA 1970-07-31 18:00:00 TS 21.1000 -83.8000 30 hurdat_atl main 91 44 O_____________ hurdat_atl AL041970 21.1000 -83.8000 TD 30 -1 10 327
1970212N18278 1970 77 NA CS CELIA 1970-07-31 21:00:00 TS 21.4999 -84.0428 main 44 0 P_____________ AL041970 21.4999 -84.0428 TD 30 -1 9 330
1970212N18278 1970 77 NA CS CELIA 1970-08-01 00:00:00 TS 21.9000 -84.3000 30 1007 hurdat_atl main 0 0 O_____________ hurdat_atl AL041970 21.9000 -84.3000 TD 30 1007 -1 10 326
1970212N18278 1970 77 NA GM CELIA 1970-08-01 03:00:00 TS 22.3150 -84.6275 main 20 20 P_____________ AL041970 22.3150 -84.6275 TD 30 1003 -1 10 321
1970212N18278 1970 77 NA GM CELIA 1970-08-01 06:00:00 TS 22.7000 -85.0000 30 hurdat_atl main 76 76 I_____________ hurdat_atl AL041970 22.7000 -85.0000 TD 30 1000 -1 10 314
1970212N18278 1970 77 NA GM CELIA 1970-08-01 09:00:00 TS 23.0150 -85.4002 main 129 129 P_____________ AL041970 23.0150 -85.4002 TD 37 996 0 10 309
1970212N18278 1970 77 NA GM CELIA 1970-08-01 12:00:00 TS 23.3000 -85.8000 45 993 hurdat_atl main 176 176 O_____________ hurdat_atl AL041970 23.3000 -85.8000 TS 45 993 0 9 311
1970212N18278 1970 77 NA GM CELIA 1970-08-01 15:00:00 TS 23.6149 -86.1576 main 226 226 P_____________ AL041970 23.6149 -86.1576 TS 52 991 0 9 313
1970212N18278 1970 77 NA GM CELIA 1970-08-01 18:00:00 TS 23.9000 -86.5000 60 990 hurdat_atl main 271 271 O_____________ hurdat_atl AL041970 23.9000 -86.5000 TS 60 990 0 8 309
1970212N18278 1970 77 NA GM CELIA 1970-08-01 21:00:00 TS 24.0997 -86.8205 main 291 290 P_____________ AL041970 24.0997 -86.8205 TS 80 977 1 8 302
1970212N18278 1970 77 NA GM CELIA 1970-08-02 00:00:00 TS 24.3000 -87.2000 100 965 hurdat_atl main 313 313 O_____________ hurdat_atl AL041970 24.3000 -87.2000 HU 100 965 3 9 302
1970212N18278 1970 77 NA GM CELIA 1970-08-02 03:00:00 TS 24.5999 -87.7048 main 346 346 P_____________ AL041970 24.5999 -87.7048 HU 95 970 2 12 301
1970212N18278 1970 77 NA GM CELIA 1970-08-02 06:00:00 TS 24.9000 -88.3000 90 975 hurdat_atl main 380 380 O_____________ hurdat_atl AL041970 24.9000 -88.3000 HU 90 975 2 12 294
1970212N18278 1970 77 NA GM CELIA 1970-08-02 09:00:00 TS 25.1075 -88.9429 main 403 403 P_____________ AL041970 25.1075 -88.9429 HU 87 980 2 12 289
1970212N18278 1970 77 NA GM CELIA 1970-08-02 12:00:00 TS 25.3000 -89.6000 85 986 hurdat_atl main 416 400 O_____________ hurdat_atl AL041970 25.3000 -89.6000 HU 85 986 2 12 291
1970212N18278 1970 77 NA GM CELIA 1970-08-02 15:00:00 TS 25.5497 -90.2076 main 402 368 P_____________ AL041970 25.5497 -90.2076 HU 85 985 2 12 295
1970212N18278 1970 77 NA GM CELIA 1970-08-02 18:00:00 TS 25.8000 -90.8000 85 984 hurdat_atl main 368 347 O_____________ hurdat_atl AL041970 25.8000 -90.8000 HU 85 984 2 11 293
1970212N18278 1970 77 NA GM CELIA 1970-08-02 21:00:00 TS 26.0069 -91.3780 main 349 338 P_____________ AL041970 26.0069 -91.3780 HU 82 985 1 12 290
1970212N18278 1970 77 NA GM CELIA 1970-08-03 00:00:00 TS 26.2000 -92.0000 80 hurdat_atl main 341 337 I_____________ hurdat_atl AL041970 26.2000 -92.0000 HU 80 986 1 13 288
1970212N18278 1970 77 NA GM CELIA 1970-08-03 03:00:00 TS 26.4001 -92.7351 main 348 315 P_____________ AL041970 26.4001 -92.7351 HU 77 987 1 14 287
1970212N18278 1970 77 NA GM CELIA 1970-08-03 06:00:00 TS 26.6000 -93.5000 75 988 hurdat_atl main 315 262 O_____________ hurdat_atl AL041970 26.6000 -93.5000 HU 75 988 1 14 287
1970212N18278 1970 77 NA GM CELIA 1970-08-03 09:00:00 TS 26.7920 -94.2079 main 262 208 P_____________ AL041970 26.7920 -94.2079 HU 82 979 1 13 288
1970212N18278 1970 77 NA GM CELIA 1970-08-03 12:00:00 TS 27.0000 -94.9000 90 971 hurdat_atl main 208 155 O_____________ hurdat_atl AL041970 27.0000 -94.9000 HU 90 971 2 13 290
1970212N18278 1970 77 NA GM CELIA 1970-08-03 15:00:00 TS 27.2345 -95.5929 main 155 89 P_____________ AL041970 27.2345 -95.5929 HU 100 958 3 13 292
1970212N18278 1970 77 NA GM CELIA 1970-08-03 18:00:00 TS 27.5000 -96.3000 110 945 hurdat_atl main 89 19 O_____________ hurdat_atl AL041970 27.5000 -96.3000 HU 110 945 3 14 294
1970212N18278 1970 77 NA GM CELIA 1970-08-03 21:00:00 TS 27.7997 -97.0426 main 19 0 P_____________ AL041970 27.7997 -97.0426 HU 90 947 2 15 294
1970212N18278 1970 77 NA NA CELIA 1970-08-04 00:00:00 TS 28.1000 -97.8000 70 950 hurdat_atl main 0 0 O_____________ hurdat_atl AL041970 28.1000 -97.8000 HU 70 950 1 14 293
1970212N18278 1970 77 NA NA CELIA 1970-08-04 03:00:00 TS 28.3571 -98.5505 main 0 0 P_____________ AL041970 28.3571 -98.5505 HU 62 967 0 14 291
1970212N18278 1970 77 NA NA CELIA 1970-08-04 06:00:00 TS 28.6000 -99.3000 55 985 hurdat_atl main 0 0 O_____________ hurdat_atl AL041970 28.6000 -99.3000 TS 55 985 0 14 290
1970212N18278 1970 77 NA NA CELIA 1970-08-04 09:00:00 TS 28.8423 -100.065 main 0 0 P_____________ AL041970 28.8423 -100.065 TS 52 988 0 14 291
1970212N18278 1970 77 NA NA CELIA 1970-08-04 12:00:00 TS 29.1000 -100.800 50 992 hurdat_atl main 0 0 O_____________ hurdat_atl AL041970 29.1000 -100.800 TS 50 992 0 13 294
1970212N18278 1970 77 NA NA CELIA 1970-08-04 15:00:00 TS 29.3921 -101.473 main 0 0 P_____________ AL041970 29.3921 -101.473 TS 42 0 13 298
1970212N18278 1970 77 NA NA CELIA 1970-08-04 18:00:00 TS 29.7000 -102.100 35 hurdat_atl main 0 0 O_____________ hurdat_atl AL041970 29.7000 -102.100 TS 35 0 12 300
1970212N18278 1970 77 NA NA CELIA 1970-08-04 21:00:00 TS 29.9993 -102.686 main 0 0 P_____________ AL041970 29.9993 -102.686 TS 32 -1 12 300
1970212N18278 1970 77 NA NA CELIA 1970-08-05 00:00:00 TS 30.3000 -103.300 30 hurdat_atl main 0 0 O_____________ hurdat_atl AL041970 30.3000 -103.300 TD 30 -1 13 297
1970212N18278 1970 77 NA NA CELIA 1970-08-05 03:00:00 TS 30.6005 -104.065 main 0 0 P_____________ AL041970 30.6005 -104.065 TD 30 -1 14 295
1970212N18278 1970 77 NA NA CELIA 1970-08-05 06:00:00 TS 30.9000 -104.800 30 hurdat_atl main 0 0 O_____________ hurdat_atl AL041970 30.9000 -104.800 TD 30 -1 12 298
1970212N18278 1970 77 NA NA CELIA 1970-08-05 09:00:00 TS 31.1841 -105.324 main 0 0 P_____________ AL041970 31.1841 -105.324 TD 27 -1 10 305
1970212N18278 1970 77 NA NA CELIA 1970-08-05 12:00:00 TS 31.5000 -105.800 25 1007 hurdat_atl main 0 0 O_____________ hurdat_atl AL041970 31.5000 -105.800 TD 25 1007 -1 11 308
1970212N18278 1970 77 NA NA CELIA 1970-08-05 15:00:00 TS 31.8810 -106.366 main 0 0 P_____________ AL041970 31.8810 -106.366 TD 25 -1 13 308
1970212N18278 1970 77 NA NA CELIA 1970-08-05 18:00:00 TS 32.3000 -107.000 25 hurdat_atl main 0 O_____________ hurdat_atl AL041970 32.3000 -107.000 TD 25 -1 14 308

IBTrACS Databaseについて

本データベースは、米国NOAAが公開する1842年以降の世界の熱帯低気圧のベストトラックデータアーカイブInternational Best Track Archive for Climate Stewardship (IBTrACS)を、ウェブで閲覧しやすい形式に変換したものです。

最終更新日:2021-12-01